Time;durP1;ratioP1;P1;durP2;ratioP2;P2;SDS_P1;SDS_P2;PMS_P1;PMS_P2;Temp;Humidity;BMP_temperature;BMP_pressure;BME280_temperature;BME280_humidity;BME280_pressure;Samples;Min_cycle;Max_cycle;Signal;HPM_P1;HPM_P2
2022/12/04 00:01:11;;;;;;;63.45;26.67;;;;;;;1.93;100.00;101855.34;5014205;28;20673;-66
2022/12/04 00:03:38;;;;;;;61.40;26.25;;;;;;;1.95;100.00;101850.97;5018034;28;20960;-67
2022/12/04 00:06:06;;;;;;;62.90;26.42;;;;;;;1.91;100.00;101850.25;5017649;28;20050;-67
2022/12/04 00:08:33;;;;;;;55.97;24.97;;;;;;;1.93;100.00;101856.19;5022764;28;20064;-66
2022/12/04 00:11:00;;;;;;;67.75;28.27;;;;;;;1.92;100.00;101853.66;5016570;28;20457;-66
2022/12/04 00:13:26;;;;;;;59.40;26.27;;;;;;;1.89;100.00;101854.66;5019817;28;20115;-66
2022/12/04 00:15:53;;;;;;;63.95;26.92;;;;;;;1.92;100.00;101845.91;5013291;28;20395;-66
2022/12/04 00:18:19;;;;;;;63.40;27.13;;;;;;;1.90;100.00;101842.53;5013417;28;20049;-66
2022/12/04 00:20:46;;;;;;;68.07;28.90;;;;;;;1.91;100.00;101850.25;5022387;28;20054;-67
2022/12/04 00:23:13;;;;;;;71.72;27.85;;;;;;;1.98;100.00;101843.06;5022270;28;20478;-66
2022/12/04 00:25:39;;;;;;;63.42;27.27;;;;;;;1.94;100.00;101842.38;5025463;28;20049;-67
2022/12/04 00:28:07;;;;;;;62.45;28.02;;;;;;;1.94;100.00;101844.09;5014249;28;20498;-66
2022/12/04 00:30:33;;;;;;;66.45;27.90;;;;;;;1.93;100.00;101840.66;5019065;28;20049;-66
2022/12/04 00:32:59;;;;;;;61.95;27.92;;;;;;;1.90;100.00;101827.88;5025287;28;20052;-67
2022/12/04 00:35:26;;;;;;;66.00;28.48;;;;;;;1.95;100.00;101835.44;5016975;28;20050;-66
2022/12/04 00:37:52;;;;;;;62.03;26.90;;;;;;;1.94;100.00;101837.19;5021819;28;20486;-66
2022/12/04 00:40:18;;;;;;;67.72;28.00;;;;;;;1.94;100.00;101833.72;5021459;28;20064;-67
2022/12/04 00:42:45;;;;;;;61.10;25.90;;;;;;;2.00;100.00;101833.50;5016766;28;20088;-67
2022/12/04 00:45:11;;;;;;;55.22;24.85;;;;;;;1.98;100.00;101833.56;5015927;28;20053;-67
2022/12/04 00:47:38;;;;;;;58.33;25.50;;;;;;;2.01;100.00;101829.16;5013354;28;20056;-67
2022/12/04 00:50:05;;;;;;;58.97;24.17;;;;;;;2.06;100.00;101830.63;5025936;28;20057;-67
2022/12/04 00:52:31;;;;;;;61.67;26.20;;;;;;;2.08;100.00;101827.97;5012094;28;20053;-67
2022/12/04 00:54:57;;;;;;;59.05;25.50;;;;;;;2.12;100.00;101819.19;5022581;28;20037;-67
2022/12/04 00:57:24;;;;;;;59.50;26.25;;;;;;;2.11;100.00;101822.66;5011017;28;20395;-66
2022/12/04 00:59:50;;;;;;;60.42;26.38;;;;;;;2.09;100.00;101820.13;5021892;28;20050;-66
2022/12/04 01:02:17;;;;;;;64.93;26.95;;;;;;;2.11;100.00;101820.91;5025879;28;20057;-66
2022/12/04 01:04:43;;;;;;;55.03;25.00;;;;;;;2.06;100.00;101825.47;5010596;28;20049;-67
2022/12/04 01:07:09;;;;;;;55.85;25.73;;;;;;;2.09;100.00;101825.31;5015270;28;20064;-67
2022/12/04 01:09:36;;;;;;;56.60;25.67;;;;;;;2.10;100.00;101833.94;5004264;28;20580;-66
2022/12/04 01:12:02;;;;;;;60.00;27.52;;;;;;;2.06;100.00;101834.97;5021945;28;20045;-66
2022/12/04 01:14:29;;;;;;;57.40;26.00;;;;;;;2.07;100.00;101837.47;5029364;28;20626;-67
2022/12/04 01:16:55;;;;;;;63.10;26.77;;;;;;;2.05;100.00;101846.22;5015765;28;20052;-66
2022/12/04 01:19:22;;;;;;;60.30;27.00;;;;;;;2.05;100.00;101841.88;5024139;28;20064;-67
2022/12/04 01:21:48;;;;;;;57.85;26.27;;;;;;;2.08;100.00;101834.00;5017427;28;20057;-67
2022/12/04 01:24:15;;;;;;;61.03;26.08;;;;;;;2.06;100.00;101840.13;5016641;28;20119;-67
2022/12/04 01:26:41;;;;;;;63.35;27.02;;;;;;;2.07;100.00;101839.25;4998453;28;20052;-66
2022/12/04 01:29:07;;;;;;;61.17;26.50;;;;;;;2.05;100.00;101835.88;5020423;28;20072;-67
2022/12/04 01:31:34;;;;;;;59.63;25.33;;;;;;;2.08;100.00;101831.41;5021201;28;20172;-67
2022/12/04 01:34:00;;;;;;;60.90;27.48;;;;;;;2.06;100.00;101832.38;5018442;28;20053;-66
2022/12/04 01:36:27;;;;;;;65.00;27.52;;;;;;;2.05;100.00;101830.69;5022122;28;20048;-66
2022/12/04 01:41:31;;;;;;;63.90;28.27;;;;;;;2.08;100.00;101838.31;4978433;28;20046;-65
2022/12/04 01:44:18;;;;;;;65.47;27.80;;;;;;;2.11;100.00;101840.78;4978782;28;20491;-67
2022/12/04 01:46:49;;;;;;;60.90;26.13;;;;;;;2.09;100.00;101837.41;4959589;28;20047;-67
2022/12/04 01:49:40;;;;;;;51.95;24.13;;;;;;;2.14;100.00;101835.50;4978566;28;20085;-67
2022/12/04 01:52:19;;;;;;;66.55;26.20;;;;;;;2.11;100.00;101823.50;4963101;28;20469;-67
2022/12/04 01:54:51;;;;;;;61.95;26.38;;;;;;;2.13;100.00;101826.03;4981128;28;20413;-67
2022/12/04 01:57:21;;;;;;;66.90;28.23;;;;;;;2.15;100.00;101827.63;4980182;28;20568;-68
2022/12/04 01:59:54;;;;;;;60.80;26.73;;;;;;;2.10;100.00;101831.34;4982283;28;20054;-67
2022/12/04 02:02:28;;;;;;;62.30;26.15;;;;;;;2.09;100.00;101825.31;4979107;28;20050;-65
2022/12/04 02:04:55;;;;;;;59.58;26.50;;;;;;;2.12;100.00;101825.19;4983200;28;20041;-65
2022/12/04 02:07:22;;;;;;;60.47;27.20;;;;;;;2.05;100.00;101817.75;4976619;28;20692;-65
2022/12/04 02:09:54;;;;;;;67.25;29.17;;;;;;;2.06;100.00;101817.69;4974360;28;20065;-65
2022/12/04 02:12:36;;;;;;;65.13;26.95;;;;;;;2.14;100.00;101820.78;4985882;28;20161;-66
2022/12/04 02:15:03;;;;;;;62.00;26.08;;;;;;;2.06;100.00;101822.88;4971923;28;20556;-65
2022/12/04 02:17:45;;;;;;;63.00;26.55;;;;;;;2.12;100.00;101826.94;4985510;28;20050;-66
2022/12/04 02:20:35;;;;;;;65.97;27.88;;;;;;;2.04;100.00;101819.50;4975506;28;20691;-65
2022/12/04 02:23:37;;;;;;;65.78;28.08;;;;;;;2.07;100.00;101823.72;4980634;28;20447;-65
2022/12/04 02:26:32;;;;;;;59.17;26.95;;;;;;;2.09;100.00;101824.47;4983873;28;20054;-65
2022/12/04 02:29:17;;;;;;;62.25;26.08;;;;;;;2.04;100.00;101823.81;4989479;28;20050;-64
2022/12/04 02:31:55;;;;;;;56.58;27.10;;;;;;;2.04;100.00;101819.50;4980464;28;20592;-64
2022/12/04 02:34:33;;;;;;;56.38;24.35;;;;;;;2.09;100.00;101821.91;4988607;28;20616;-64
2022/12/04 02:37:07;;;;;;;60.72;26.83;;;;;;;2.10;100.00;101821.00;4981888;28;20615;-65
2022/12/04 02:39:40;;;;;;;65.28;27.92;;;;;;;2.03;100.00;101819.56;4987804;28;20050;-65
2022/12/04 02:42:18;;;;;;;60.38;27.17;;;;;;;2.07;100.00;101816.78;4986469;28;20442;-66
2022/12/04 02:44:52;;;;;;;64.53;26.97;;;;;;;2.03;100.00;101810.06;4984046;28;20050;-64
2022/12/04 02:47:22;;;;;;;60.67;27.75;;;;;;;2.06;100.00;101817.69;4981956;28;20046;-65
2022/12/04 02:49:57;;;;;;;64.00;26.70;;;;;;;2.02;100.00;101805.81;4981450;28;20058;-65
2022/12/04 02:52:32;;;;;;;59.60;26.85;;;;;;;2.01;100.00;101808.44;4988136;28;20062;-66
2022/12/04 02:55:03;;;;;;;71.55;28.27;;;;;;;2.02;100.00;101805.81;4979804;28;20105;-65
2022/12/04 02:57:39;;;;;;;63.80;27.75;;;;;;;2.03;100.00;101799.69;4982185;28;20140;-65
2022/12/04 03:00:07;;;;;;;59.92;26.55;;;;;;;2.07;100.00;101808.19;4976079;28;20072;-65
2022/12/04 03:02:49;;;;;;;62.45;27.15;;;;;;;2.16;100.00;101808.63;4985727;28;20046;-65
2022/12/04 03:05:18;;;;;;;62.00;27.33;;;;;;;2.12;100.00;101803.66;4988171;28;20050;-65
2022/12/04 03:07:54;;;;;;;65.97;27.33;;;;;;;2.14;100.00;101801.84;4953931;28;20515;-64
2022/12/04 03:10:29;;;;;;;65.40;27.50;;;;;;;2.12;100.00;101798.47;4969816;28;20054;-65
2022/12/04 03:13:09;;;;;;;57.03;25.95;;;;;;;2.14;100.00;101802.66;4977041;28;20054;-65
2022/12/04 03:15:46;;;;;;;66.35;27.23;;;;;;;2.10;100.00;101801.13;4977260;28;20074;-65
2022/12/04 03:18:20;;;;;;;62.20;27.00;;;;;;;2.09;100.00;101796.00;4977996;28;20067;-65
2022/12/04 03:20:51;;;;;;;58.42;26.88;;;;;;;2.10;100.00;101800.28;4986394;28;20054;-65
2022/12/04 03:23:27;;;;;;;56.70;25.33;;;;;;;2.05;100.00;101792.72;4991577;28;20050;-64
2022/12/04 03:26:12;;;;;;;63.35;27.15;;;;;;;2.11;100.00;101795.03;4988386;28;20561;-65
2022/12/04 03:28:54;;;;;;;61.15;26.38;;;;;;;2.11;100.00;101783.84;4974898;28;20050;-66
2022/12/04 03:31:38;;;;;;;59.38;27.00;;;;;;;2.18;100.00;101793.03;4986135;28;20046;-65
2022/12/04 03:34:07;;;;;;;55.75;24.20;;;;;;;2.18;100.00;101795.63;4984536;28;20050;-66
2022/12/04 03:36:39;;;;;;;54.95;24.95;;;;;;;2.16;100.00;101790.50;4984717;28;20062;-65
2022/12/04 03:39:29;;;;;;;61.35;26.58;;;;;;;2.16;100.00;101792.25;4982926;28;20054;-65
2022/12/04 03:42:01;;;;;;;61.08;26.58;;;;;;;2.09;100.00;101789.06;4960359;28;20054;-65
2022/12/04 03:44:39;;;;;;;58.83;25.05;;;;;;;2.13;100.00;101787.19;4981779;28;20050;-65
2022/12/04 03:47:15;;;;;;;62.13;26.83;;;;;;;2.20;100.00;101785.19;4976236;28;20058;-64
2022/12/04 03:50:08;;;;;;;56.33;26.98;;;;;;;2.16;100.00;101785.31;4987056;28;20050;-64
2022/12/04 03:53:17;;;;;;;57.42;26.27;;;;;;;2.17;100.00;101788.75;4980225;28;20056;-65
2022/12/04 03:55:45;;;;;;;;;;;;;;;2.04;100.00;101777.25;4982827;28;20058;-65
2022/12/04 03:58:18;;;;;;;57.20;25.60;;;;;;;2.12;100.00;101790.72;4976250;28;19985;-65
2022/12/04 04:00:46;;;;;;;53.33;22.52;;;;;;;2.13;100.00;101789.78;4986000;28;20815;-64
2022/12/04 04:03:21;;;;;;;58.97;25.15;;;;;;;2.13;100.00;101787.19;4980676;28;20050;-65
2022/12/04 04:05:58;;;;;;;65.15;26.35;;;;;;;2.11;100.00;101792.44;4985877;28;20050;-65
2022/12/04 04:08:32;;;;;;;57.38;25.55;;;;;;;2.07;100.00;101790.06;4981518;28;20058;-66
2022/12/04 04:11:22;;;;;;;56.28;26.23;;;;;;;2.09;100.00;101794.25;4976878;28;20109;-65
2022/12/04 04:25:23;;;;;;;56.45;24.20;;;;;;;2.10;100.00;101800.28;4982078;28;19929;-65
2022/12/04 04:27:51;;;;;;;57.55;24.58;;;;;;;2.05;100.00;101794.47;4976956;28;20471;-64
2022/12/04 04:30:18;;;;;;;60.67;25.60;;;;;;;2.01;100.00;101796.34;4986367;28;20050;-64
2022/12/04 04:32:52;;;;;;;58.97;27.08;;;;;;;2.03;100.00;101794.53;4979861;28;20105;-64
2022/12/04 04:35:24;;;;;;;60.35;26.63;;;;;;;1.98;100.00;101791.31;4978556;28;20050;-66
2022/12/04 04:38:19;;;;;;;66.13;27.02;;;;;;;1.99;100.00;101790.41;4979957;28;20050;-66
2022/12/04 04:40:55;;;;;;;55.95;25.60;;;;;;;2.03;100.00;101788.53;4966320;28;20505;-65
2022/12/04 04:43:28;;;;;;;53.72;25.15;;;;;;;1.96;100.00;101786.22;4981199;28;20050;-66
2022/12/04 04:46:03;;;;;;;56.50;25.52;;;;;;;2.07;100.00;101793.47;4985244;28;20046;-65
2022/12/04 04:48:34;;;;;;;58.40;25.00;;;;;;;2.07;100.00;101795.25;4985262;28;20100;-65
2022/12/04 04:51:02;;;;;;;58.97;25.30;;;;;;;2.07;100.00;101796.06;4981204;28;20058;-65
2022/12/04 04:53:34;;;;;;;64.00;27.55;;;;;;;2.05;100.00;101791.88;4982665;28;21156;-65
2022/12/04 04:56:03;;;;;;;55.92;25.42;;;;;;;2.08;100.00;101791.72;4978104;28;20060;-65
2022/12/04 04:58:29;;;;;;;67.70;28.23;;;;;;;2.02;100.00;101789.41;4986749;28;20435;-64
2022/12/04 05:00:57;;;;;;;57.67;24.35;;;;;;;2.02;100.00;101789.41;4985018;28;20050;-65
2022/12/04 05:03:25;;;;;;;58.40;27.17;;;;;;;1.98;100.00;101788.72;4986614;28;20062;-64
2022/12/04 05:05:51;;;;;;;61.58;25.75;;;;;;;1.97;100.00;101787.88;4988094;28;20058;-64
2022/12/04 05:08:18;;;;;;;56.30;26.20;;;;;;;1.98;100.00;101786.97;4981364;28;20085;-64
2022/12/04 05:10:44;;;;;;;62.63;27.65;;;;;;;2.01;100.00;101785.16;4965618;28;20118;-64
2022/12/04 05:13:12;;;;;;;52.80;23.70;;;;;;;2.04;100.00;101790.19;4980458;28;20054;-64
2022/12/04 05:15:38;;;;;;;70.70;27.15;;;;;;;1.92;100.00;101787.25;4987303;28;20105;-64
2022/12/04 05:18:05;;;;;;;58.83;26.48;;;;;;;1.92;100.00;101789.84;4970201;28;20050;-65
2022/12/04 05:20:31;;;;;;;58.17;25.70;;;;;;;1.94;100.00;101782.84;4980694;28;20494;-65
2022/12/04 05:22:57;;;;;;;59.85;26.40;;;;;;;2.01;100.00;101791.16;4985530;28;20050;-64
2022/12/04 05:25:24;;;;;;;53.63;23.95;;;;;;;2.02;100.00;101798.03;4981313;28;20046;-65
2022/12/04 05:27:51;;;;;;;59.78;25.65;;;;;;;2.02;100.00;101798.03;4987529;28;20066;-64
2022/12/04 05:30:17;;;;;;;56.80;24.63;;;;;;;2.00;100.00;101799.84;4981265;28;20054;-63
2022/12/04 05:32:43;;;;;;;61.20;26.17;;;;;;;2.04;100.00;101792.78;4981735;28;20047;-67
2022/12/04 05:35:10;;;;;;;57.63;26.40;;;;;;;1.98;100.00;101793.91;4968287;28;20050;-64
2022/12/04 05:37:38;;;;;;;60.67;25.45;;;;;;;1.99;100.00;101790.41;4978212;28;20458;-64
2022/12/04 05:40:07;;;;;;;51.30;24.02;;;;;;;2.06;100.00;101796.13;4986498;28;20042;-64
2022/12/04 05:42:33;;;;;;;57.00;24.92;;;;;;;1.90;100.00;101777.84;4981343;28;20081;-64
2022/12/04 05:45:00;;;;;;;59.83;25.83;;;;;;;1.93;100.00;101790.66;4983821;28;20057;-64
2022/12/04 05:47:26;;;;;;;55.55;24.20;;;;;;;1.90;100.00;101789.06;4975109;28;20050;-64
2022/12/04 05:49:52;;;;;;;54.08;24.67;;;;;;;1.93;100.00;101793.25;4986275;28;20638;-64
2022/12/04 05:52:19;;;;;;;57.88;25.30;;;;;;;1.96;100.00;101786.22;4987355;28;20053;-64
2022/12/04 05:54:46;;;;;;;55.78;25.05;;;;;;;1.88;100.00;101783.13;4980999;28;20133;-64
2022/12/04 05:57:12;;;;;;;51.03;23.98;;;;;;;2.02;100.00;101784.22;4986633;28;20050;-63
2022/12/04 05:59:38;;;;;;;53.42;24.27;;;;;;;2.03;100.00;101788.53;4974297;28;20424;-63
2022/12/04 06:02:05;;;;;;;54.95;25.80;;;;;;;2.02;100.00;101787.69;4978126;28;20475;-64
2022/12/04 06:04:31;;;;;;;53.10;24.48;;;;;;;2.02;100.00;101779.94;4980614;28;20058;-64
2022/12/04 06:06:57;;;;;;;55.22;24.13;;;;;;;1.98;100.00;101778.38;4985953;28;20046;-64
2022/12/04 06:09:24;;;;;;;51.58;23.45;;;;;;;2.00;100.00;101783.47;4987295;28;20050;-65
2022/12/04 06:11:50;;;;;;;52.17;23.67;;;;;;;1.97;100.00;101776.69;4981710;28;20675;-63
2022/12/04 06:14:17;;;;;;;54.20;23.95;;;;;;;1.97;100.00;101777.53;4982728;28;20415;-64
2022/12/04 06:16:45;;;;;;;55.45;24.02;;;;;;;2.09;100.00;101780.47;4976111;28;20046;-63
2022/12/04 06:19:14;;;;;;;56.10;24.23;;;;;;;2.10;100.00;101771.81;4984023;28;20141;-63
2022/12/04 06:21:43;;;;;;;52.88;25.63;;;;;;;2.12;100.00;101776.00;4970929;28;20413;-64
2022/12/04 06:24:14;;;;;;;53.80;24.20;;;;;;;2.11;100.00;101778.66;4990333;28;20054;-64
2022/12/04 06:26:41;;;;;;;53.63;24.40;;;;;;;2.08;100.00;101774.47;4993262;28;20051;-63
2022/12/04 06:29:27;;;;;;;53.10;24.10;;;;;;;2.05;100.00;101766.84;4975094;28;20057;-65
2022/12/04 06:31:54;;;;;;;52.00;24.20;;;;;;;2.03;100.00;101770.41;4976865;28;20205;-65
2022/12/04 06:34:20;;;;;;;52.47;24.50;;;;;;;2.00;100.00;101773.97;4947956;28;20062;-65
2022/12/04 06:36:46;;;;;;;47.97;22.92;;;;;;;2.03;100.00;101771.25;4992516;28;20116;-64
2022/12/04 06:39:13;;;;;;;54.58;24.25;;;;;;;2.01;100.00;101769.63;4979167;28;20042;-64
2022/12/04 06:41:46;;;;;;;51.20;24.33;;;;;;;2.02;100.00;101766.13;4985575;28;20513;-64
2022/12/04 06:44:13;;;;;;;50.85;23.58;;;;;;;2.09;100.00;101778.72;4975123;28;20138;-64
2022/12/04 06:46:40;;;;;;;57.75;25.00;;;;;;;2.02;100.00;101771.28;4970039;28;20471;-65
2022/12/04 06:49:12;;;;;;;53.03;23.77;;;;;;;2.01;100.00;101774.81;4979859;28;20516;-64
2022/12/04 06:51:39;;;;;;;51.97;22.83;;;;;;;2.03;100.00;101789.34;4975049;28;20042;-64
2022/12/04 06:54:06;;;;;;;54.55;24.40;;;;;;;2.02;100.00;101785.09;4982279;28;20051;-65
2022/12/04 06:56:33;;;;;;;64.82;24.48;;;;;;;2.04;100.00;101788.47;4975381;28;20399;-64
2022/12/04 06:59:02;;;;;;;59.95;23.17;;;;;;;2.06;100.00;101789.22;4979510;28;20176;-65
2022/12/04 07:01:30;;;;;;;49.35;22.80;;;;;;;2.05;100.00;101787.53;4980921;28;20042;-64
2022/12/04 07:03:57;;;;;;;50.63;22.65;;;;;;;2.09;100.00;101785.66;4973868;28;20054;-65
2022/12/04 07:06:25;;;;;;;53.30;23.85;;;;;;;2.04;100.00;101785.88;4980600;28;20514;-65
2022/12/04 07:08:54;;;;;;;50.57;23.87;;;;;;;2.09;100.00;101796.84;4979531;28;20137;-65
2022/12/04 07:11:21;;;;;;;43.83;20.63;;;;;;;2.09;100.00;101798.59;4981328;28;20050;-65
2022/12/04 07:13:48;;;;;;;49.00;22.65;;;;;;;2.14;100.00;101801.84;4976893;28;20065;-65
2022/12/04 07:16:17;;;;;;;53.97;23.30;;;;;;;2.18;100.00;101798.19;4984469;28;20050;-65
2022/12/04 07:18:44;;;;;;;49.33;21.92;;;;;;;2.15;100.00;101799.16;4990343;28;20454;-64
2022/12/04 07:21:15;;;;;;;52.50;23.13;;;;;;;2.13;100.00;101800.97;4985560;28;20061;-64
2022/12/04 07:23:41;;;;;;;49.75;23.83;;;;;;;2.14;100.00;101799.25;4973356;28;20046;-65
2022/12/04 07:26:11;;;;;;;51.92;22.23;;;;;;;2.15;100.00;101813.84;4975825;28;20054;-64
2022/12/04 07:28:38;;;;;;;52.50;23.05;;;;;;;2.16;100.00;101800.03;4974557;28;20050;-64
2022/12/04 07:31:10;;;;;;;46.10;21.65;;;;;;;2.20;100.00;101803.31;4984438;28;20164;-65
2022/12/04 07:33:37;;;;;;;51.90;23.33;;;;;;;2.14;100.00;101801.84;4971197;28;20065;-64
2022/12/04 07:36:07;;;;;;;50.70;21.77;;;;;;;2.20;100.00;101805.91;4988316;28;20050;-65
2022/12/04 07:38:34;;;;;;;54.22;22.67;;;;;;;2.17;100.00;101799.09;4972156;28;20109;-65
2022/12/04 07:41:02;;;;;;;43.85;20.30;;;;;;;2.25;100.00;101801.34;4979939;28;20054;-65
2022/12/04 07:43:30;;;;;;;46.93;22.00;;;;;;;2.26;100.00;101811.63;4968366;28;20050;-65
2022/12/04 07:45:57;;;;;;;47.47;21.58;;;;;;;2.24;100.00;101804.84;4980871;28;20652;-64
2022/12/04 07:48:24;;;;;;;53.17;22.70;;;;;;;2.21;100.00;101811.00;4977531;28;20058;-64
2022/12/04 07:51:03;;;;;;;47.50;21.60;;;;;;;2.22;100.00;101804.91;4988061;28;20078;-64
2022/12/04 07:53:30;;;;;;;47.78;21.20;;;;;;;2.24;100.00;101810.88;4985574;28;20829;-64
2022/12/04 07:55:56;;;;;;;44.80;21.70;;;;;;;2.20;100.00;101804.16;4977925;28;20457;-64
2022/12/04 07:58:23;;;;;;;44.92;21.20;;;;;;;2.13;100.00;101816.50;4988990;28;20058;-63
2022/12/04 08:00:49;;;;;;;54.05;22.35;;;;;;;2.12;100.00;101814.00;4983059;28;20422;-65
2022/12/04 08:03:16;;;;;;;46.90;21.13;;;;;;;2.12;100.00;101814.00;4981562;28;20061;-65
2022/12/04 08:05:42;;;;;;;47.63;22.20;;;;;;;2.13;100.00;101810.50;4984472;28;20053;-65
2022/12/04 08:08:08;;;;;;;45.05;21.00;;;;;;;2.11;100.00;101801.97;4983486;28;20050;-64
2022/12/04 08:10:38;;;;;;;45.55;21.10;;;;;;;2.09;100.00;101809.78;4983854;28;20061;-63
2022/12/04 08:13:04;;;;;;;43.63;19.98;;;;;;;2.16;100.00;101820.72;4981839;28;20058;-64
2022/12/04 08:15:30;;;;;;;46.58;21.33;;;;;;;2.13;100.00;101813.09;4984074;28;20054;-64
2022/12/04 08:17:57;;;;;;;43.63;20.35;;;;;;;2.11;100.00;101820.06;4976355;28;20563;-64
2022/12/04 08:20:23;;;;;;;52.45;22.23;;;;;;;2.07;100.00;101823.72;4989182;28;20142;-64
2022/12/04 08:22:49;;;;;;;43.35;18.25;;;;;;;2.09;100.00;101825.31;4979042;28;20062;-63
2022/12/04 08:25:17;;;;;;;53.50;21.58;;;;;;;2.13;100.00;101829.44;4983242;28;20050;-64
2022/12/04 08:27:45;;;;;;;46.70;20.02;;;;;;;2.08;100.00;101834.00;4987936;28;20601;-64
2022/12/04 08:30:13;;;;;;;48.97;21.20;;;;;;;2.15;100.00;101832.81;4981598;28;20085;-64
2022/12/04 08:32:39;;;;;;;49.92;21.27;;;;;;;2.14;100.00;101838.06;4988032;28;20089;-64
2022/12/04 08:35:06;;;;;;;44.97;19.98;;;;;;;2.18;100.00;101840.44;4981089;28;20057;-64
2022/12/04 08:37:32;;;;;;;46.80;20.25;;;;;;;2.18;100.00;101843.03;4982042;28;20054;-64
2022/12/04 08:39:59;;;;;;;46.40;20.45;;;;;;;2.15;100.00;101845.75;4979346;28;20050;-64
2022/12/04 08:42:25;;;;;;;42.90;19.65;;;;;;;2.22;100.00;101838.56;4974113;28;20487;-64
2022/12/04 08:44:51;;;;;;;43.67;21.02;;;;;;;2.28;100.00;101845.22;4988619;28;20061;-65
2022/12/04 08:47:18;;;;;;;45.28;20.00;;;;;;;2.17;100.00;101838.75;4981311;28;20050;-65
2022/12/04 08:49:44;;;;;;;46.25;21.40;;;;;;;2.21;100.00;101846.41;4986454;28;20058;-63
2022/12/04 08:52:11;;;;;;;48.60;21.25;;;;;;;2.23;100.00;101836.81;4977826;28;20510;-64
2022/12/04 08:54:37;;;;;;;44.42;20.75;;;;;;;2.27;100.00;101838.38;4985449;28;20042;-64
2022/12/04 08:57:04;;;;;;;41.38;20.60;;;;;;;2.26;100.00;101828.94;4978401;28;20415;-63
2022/12/04 08:59:30;;;;;;;42.67;19.88;;;;;;;2.32;100.00;101836.41;4981473;28;20058;-64
2022/12/04 09:01:57;;;;;;;38.72;17.95;;;;;;;2.34;100.00;101835.44;4987598;28;20050;-64
2022/12/04 09:04:23;;;;;;;42.10;18.73;;;;;;;2.34;100.00;101832.00;4979259;28;20404;-65
2022/12/04 09:06:50;;;;;;;44.25;20.23;;;;;;;2.32;100.00;101832.06;4982598;28;20142;-64
2022/12/04 09:09:16;;;;;;;45.97;19.38;;;;;;;2.34;100.00;101832.00;4980430;28;20050;-63
2022/12/04 09:11:46;;;;;;;47.58;20.48;;;;;;;2.35;100.00;101825.91;4979573;28;20069;-64
2022/12/04 09:14:12;;;;;;;45.47;19.38;;;;;;;2.30;100.00;101817.53;4987218;28;20050;-64
2022/12/04 09:16:38;;;;;;;43.75;20.48;;;;;;;2.32;100.00;101823.47;4981131;28;20605;-64
2022/12/04 09:19:05;;;;;;;42.83;18.42;;;;;;;2.25;100.00;101822.88;4983096;28;20158;-64
2022/12/04 09:21:31;;;;;;;39.35;19.45;;;;;;;2.24;100.00;101828.16;4974953;28;20443;-64
2022/12/04 09:23:58;;;;;;;41.58;19.63;;;;;;;2.21;100.00;101825.69;4978714;28;20051;-64
2022/12/04 09:26:30;;;;;;;45.80;19.83;;;;;;;2.28;100.00;101830.53;4965353;28;20047;-64
2022/12/04 09:28:58;;;;;;;39.42;17.83;;;;;;;2.27;100.00;101834.00;4982076;28;20061;-64
2022/12/04 09:31:24;;;;;;;40.40;18.35;;;;;;;2.30;100.00;101839.06;4990617;28;20501;-65
2022/12/04 09:33:51;;;;;;;37.33;16.65;;;;;;;2.33;100.00;101835.50;4971272;28;20054;-65
2022/12/04 09:36:18;;;;;;;38.47;17.50;;;;;;;2.30;100.00;101836.47;4977773;28;20090;-64
2022/12/04 09:38:50;;;;;;;37.47;16.40;;;;;;;2.32;100.00;101832.06;4973100;28;20058;-64
2022/12/04 09:41:35;;;;;;;41.10;17.48;;;;;;;2.31;100.00;101840.78;4991156;28;20124;-64
2022/12/04 09:44:26;;;;;;;38.15;16.67;;;;;;;2.31;100.00;101834.72;4977665;28;20081;-64
2022/12/04 09:47:04;;;;;;;34.97;15.75;;;;;;;2.27;100.00;101822.81;4976303;28;20049;-64
2022/12/04 09:49:43;;;;;;;36.60;16.30;;;;;;;2.26;100.00;101828.94;4981785;28;20139;-64
2022/12/04 09:52:47;;;;;;;34.58;16.25;;;;;;;2.28;100.00;101827.09;4985507;28;20058;-64
2022/12/04 09:55:23;;;;;;;35.40;15.38;;;;;;;2.22;100.00;101830.81;4962306;28;20573;-64
2022/12/04 09:57:54;;;;;;;31.63;14.48;;;;;;;2.32;100.00;101828.66;4977192;28;20047;-64
2022/12/04 10:00:28;;;;;;;34.10;15.13;;;;;;;2.35;100.00;101831.09;4982768;28;20050;-65
2022/12/04 10:03:00;;;;;;;26.13;12.98;;;;;;;2.40;100.00;101825.72;4976830;28;20120;-64
2022/12/04 10:06:05;;;;;;;26.67;13.10;;;;;;;2.34;100.00;101821.66;4985447;28;20050;-64
2022/12/04 10:08:39;;;;;;;26.00;12.18;;;;;;;2.30;100.00;101817.53;4972299;28;20050;-64
2022/12/04 10:11:23;;;;;;;25.33;11.90;;;;;;;2.39;100.00;101822.28;4985562;28;20050;-64
2022/12/04 10:14:16;;;;;;;25.58;11.68;;;;;;;2.32;100.00;101818.28;4980154;28;20042;-65
2022/12/04 10:16:48;;;;;;;23.70;12.18;;;;;;;2.33;100.00;101815.66;4977723;28;20050;-64
2022/12/04 10:19:43;;;;;;;26.50;12.82;;;;;;;2.43;100.00;101818.66;4980816;28;20629;-65
2022/12/04 10:22:16;;;;;;;25.75;12.35;;;;;;;2.38;100.00;101823.19;4975408;28;20161;-65
2022/12/04 10:24:47;;;;;;;25.33;12.90;;;;;;;2.38;100.00;101825.78;4973982;28;20106;-64
2022/12/04 10:27:22;;;;;;;26.02;12.65;;;;;;;2.41;100.00;101824.78;4975926;28;20529;-65
2022/12/04 10:29:54;;;;;;;23.48;10.85;;;;;;;2.46;100.00;101820.25;4982009;28;20046;-64
2022/12/04 10:32:30;;;;;;;24.55;12.55;;;;;;;2.37;100.00;101830.13;4971878;28;20054;-65
2022/12/04 10:35:07;;;;;;;23.92;12.27;;;;;;;2.48;100.00;101826.22;4984241;28;20052;-63
2022/12/04 10:37:39;;;;;;;23.50;11.93;;;;;;;2.51;100.00;101823.47;4979821;28;20046;-65
2022/12/04 10:40:20;;;;;;;22.25;11.82;;;;;;;2.49;100.00;101823.56;4982106;28;20062;-64
2022/12/04 10:42:54;;;;;;;25.42;12.07;;;;;;;2.52;100.00;101825.16;4967202;28;20051;-64
2022/12/04 10:45:22;;;;;;;22.27;11.13;;;;;;;2.52;100.00;101823.41;4981660;28;20055;-64
2022/12/04 10:47:50;;;;;;;27.35;12.30;;;;;;;2.59;100.00;101813.63;4982730;28;20530;-65
2022/12/04 10:50:23;;;;;;;22.67;11.73;;;;;;;2.57;100.00;101812.84;4994398;28;20053;-68
2022/12/04 10:52:50;;;;;;;23.80;11.90;;;;;;;2.63;100.00;101815.16;4981926;28;20086;-66
2022/12/04 10:55:31;;;;;;;26.83;12.38;;;;;;;2.68;100.00;101804.56;4987104;28;20121;-67
2022/12/04 10:57:58;;;;;;;18.67;10.02;;;;;;;2.62;100.00;101812.63;4983498;28;20058;-67
2022/12/04 11:00:29;;;;;;;22.45;11.60;;;;;;;2.64;100.00;101808.22;4980198;28;20058;-66
2022/12/04 11:03:01;;;;;;;22.65;11.40;;;;;;;2.66;100.00;101820.19;4991973;28;20047;-67
2022/12/04 11:05:39;;;;;;;23.17;11.63;;;;;;;2.61;100.00;101814.38;4981376;28;20058;-67
2022/12/04 11:08:06;;;;;;;24.48;10.88;;;;;;;2.67;100.00;101818.44;4989822;28;20475;-67
2022/12/04 11:10:34;;;;;;;23.40;10.95;;;;;;;2.65;100.00;101818.50;4984632;28;20129;-67
2022/12/04 11:13:11;;;;;;;22.67;11.88;;;;;;;2.74;100.00;101814.66;4988014;28;20050;-67
2022/12/04 11:15:47;;;;;;;23.70;11.45;;;;;;;2.65;100.00;101809.91;4985634;28;20502;-67
2022/12/04 11:18:19;;;;;;;23.45;11.52;;;;;;;2.69;100.00;101814.88;4983511;28;20050;-67
2022/12/04 11:21:11;;;;;;;19.55;11.70;;;;;;;2.78;100.00;101803.22;4989081;28;20050;-67
2022/12/04 11:23:44;;;;;;;25.98;13.60;;;;;;;2.71;100.00;101801.84;4981894;28;20051;-67
2022/12/04 11:26:11;;;;;;;23.35;11.77;;;;;;;2.68;100.00;101791.63;4986490;28;20062;-67
2022/12/04 11:28:39;;;;;;;24.27;11.77;;;;;;;2.68;100.00;101783.84;4976949;28;20057;-67
2022/12/04 11:31:13;;;;;;;23.70;11.40;;;;;;;2.68;100.00;101781.25;4989161;28;20106;-67
2022/12/04 11:33:56;;;;;;;21.05;11.10;;;;;;;2.74;100.00;101771.47;4982430;28;20050;-67
2022/12/04 11:36:29;;;;;;;22.33;11.02;;;;;;;2.74;100.00;101775.78;4989557;28;20042;-67
2022/12/04 11:39:11;;;;;;;23.80;12.10;;;;;;;2.80;100.00;101778.06;4988873;28;20042;-68
2022/12/04 11:41:38;;;;;;;20.88;10.68;;;;;;;2.72;100.00;101772.41;4973098;28;20458;-68